createdAt,value
2023-03-15T00:00:45.475Z,96112.47
2023-03-15T00:03:11.780Z,96117.91
2023-03-15T00:05:38.080Z,96108.53
2023-03-15T00:08:04.681Z,96106.28
2023-03-15T00:10:31.017Z,96114.78
2023-03-15T00:12:57.308Z,96114.59
2023-03-15T00:15:23.638Z,96117.91
2023-03-15T00:17:49.963Z,96144.47
2023-03-15T00:20:16.271Z,96157.97
2023-03-15T00:22:42.599Z,96174.28
2023-03-15T00:25:08.902Z,96175.47
2023-03-15T00:27:35.199Z,96182.97
2023-03-15T00:30:01.563Z,96185.31
2023-03-15T00:32:27.891Z,96198.63
2023-03-15T00:34:54.217Z,96204.53
2023-03-15T00:37:20.535Z,96216.78
2023-03-15T00:39:46.836Z,96224.69
2023-03-15T00:42:13.127Z,96216.00
2023-03-15T00:44:39.439Z,96221.13
2023-03-15T00:47:05.735Z,96206.56
2023-03-15T00:49:32.035Z,96201.75
2023-03-15T00:51:58.341Z,96199.75
2023-03-15T00:54:24.631Z,96204.06
2023-03-15T00:56:51.106Z,96211.53
2023-03-15T00:59:17.426Z,96211.47
2023-03-15T01:01:43.731Z,96220.53
2023-03-15T01:04:10.024Z,96222.09
2023-03-15T01:06:36.375Z,96223.38
2023-03-15T01:09:02.663Z,96227.69
2023-03-15T01:11:28.973Z,96243.50
2023-03-15T01:13:55.325Z,96243.47
2023-03-15T01:16:21.675Z,96240.28
2023-03-15T01:18:47.985Z,96234.78
2023-03-15T01:21:14.286Z,96230.25
2023-03-15T01:23:40.589Z,96236.16
2023-03-15T01:26:06.882Z,96237.69
2023-03-15T01:28:33.182Z,96232.50
2023-03-15T01:31:00.095Z,96236.47
2023-03-15T01:33:26.573Z,96241.28
2023-03-15T01:35:52.945Z,96238.94
2023-03-15T01:38:19.283Z,96235.75
2023-03-15T01:40:45.576Z,96242.88
2023-03-15T01:43:11.912Z,96235.00
2023-03-15T01:45:38.209Z,96236.59
2023-03-15T01:48:04.509Z,96230.63
2023-03-15T01:50:30.819Z,96232.22
2023-03-15T01:52:57.108Z,96235.78
2023-03-15T01:55:23.392Z,96236.56
2023-03-15T01:57:49.708Z,96240.50
2023-03-15T02:00:16.012Z,96242.09
2023-03-15T02:02:42.301Z,96238.13
2023-03-15T02:05:08.607Z,96243.25
2023-03-15T02:07:34.938Z,96233.41
2023-03-15T02:10:01.275Z,96230.28
2023-03-15T02:12:27.635Z,96239.72
2023-03-15T02:14:53.936Z,96237.34
2023-03-15T02:17:20.218Z,96236.59
2023-03-15T02:19:46.523Z,96235.38
2023-03-15T02:22:12.800Z,96236.56
2023-03-15T02:24:39.123Z,96240.91
2023-03-15T02:27:05.529Z,96228.69
2023-03-15T02:29:31.880Z,96227.50
2023-03-15T02:31:58.277Z,96235.00
2023-03-15T02:34:24.656Z,96234.19
2023-03-15T02:36:50.944Z,96234.19
2023-03-15T02:39:17.250Z,96219.63
2023-03-15T02:41:43.573Z,96225.50
2023-03-15T02:44:09.850Z,96228.69
2023-03-15T02:46:36.130Z,96238.13
2023-03-15T02:49:02.437Z,96234.22
2023-03-15T02:51:28.753Z,96224.38
2023-03-15T02:53:55.041Z,96243.25
2023-03-15T02:56:21.354Z,96239.72
2023-03-15T02:58:47.646Z,96243.66
2023-03-15T03:01:13.946Z,96244.88
2023-03-15T03:03:40.259Z,96246.03
2023-03-15T03:06:06.551Z,96258.63
2023-03-15T03:08:32.839Z,96263.38
2023-03-15T03:10:59.156Z,96260.59
2023-03-15T03:13:25.441Z,96273.56
2023-03-15T03:15:51.739Z,96272.81
2023-03-15T03:18:18.089Z,96279.47
2023-03-15T03:20:44.384Z,96273.25
2023-03-15T03:23:10.683Z,96279.09
2023-03-15T03:25:36.989Z,96291.31
2023-03-15T03:28:03.276Z,96288.19
2023-03-15T03:30:29.638Z,96292.09
2023-03-15T03:32:55.985Z,96296.72
2023-03-15T03:35:22.283Z,96305.03
2023-03-15T03:37:48.582Z,96305.81
2023-03-15T03:40:14.895Z,96312.88
2023-03-15T03:42:41.191Z,96312.91
2023-03-15T03:45:07.498Z,96316.81
2023-03-15T03:47:33.810Z,96313.72
2023-03-15T03:50:00.127Z,96326.28
2023-03-15T03:52:26.434Z,96330.44
2023-03-15T03:54:55.747Z,96331.75
2023-03-15T03:57:22.063Z,96326.31
2023-03-15T03:59:48.364Z,96332.69
2023-03-15T04:02:14.699Z,96338.44
2023-03-15T04:04:41.049Z,96340.81
2023-03-15T04:07:07.404Z,96343.88
2023-03-15T04:09:33.721Z,96347.47
2023-03-15T04:12:00.041Z,96349.78
2023-03-15T04:14:26.369Z,96340.28
2023-03-15T04:16:52.689Z,96338.31
2023-03-15T04:19:18.992Z,96345.53
2023-03-15T04:21:45.272Z,96339.19
2023-03-15T04:24:11.629Z,96346.63
2023-03-15T04:26:37.928Z,96346.69
2023-03-15T04:29:04.234Z,96349.72
2023-03-15T04:31:30.594Z,96352.03
2023-03-15T04:33:56.925Z,96350.38
2023-03-15T04:36:23.222Z,96351.41
2023-03-15T04:38:49.546Z,96348.97
2023-03-15T04:41:15.830Z,96358.38
2023-03-15T04:43:42.139Z,96349.22
2023-03-15T04:46:08.475Z,96358.81
2023-03-15T04:48:34.771Z,96361.56
2023-03-15T04:51:01.064Z,96356.59
2023-03-15T04:53:27.372Z,96362.44
2023-03-15T04:55:53.663Z,96364.50
2023-03-15T04:58:19.954Z,96366.06
2023-03-15T05:00:46.292Z,96377.53
2023-03-15T05:03:12.629Z,96382.88
2023-03-15T05:05:38.927Z,96380.28
2023-03-15T05:08:05.239Z,96379.50
2023-03-15T05:10:31.562Z,96388.78
2023-03-15T05:12:57.867Z,96396.19
2023-03-15T05:15:24.228Z,96404.63
2023-03-15T05:17:50.555Z,96400.50
2023-03-15T05:20:16.854Z,96402.56
2023-03-15T05:22:43.170Z,96411.00
2023-03-15T05:25:09.458Z,96406.56
2023-03-15T05:27:35.877Z,96413.44
2023-03-15T05:30:02.223Z,96413.88
2023-03-15T05:32:28.526Z,96406.75
2023-03-15T05:34:54.829Z,96403.00
2023-03-15T05:37:21.140Z,96409.78
2023-03-15T05:39:47.432Z,96413.38
2023-03-15T05:42:13.728Z,96412.97
2023-03-15T05:44:40.054Z,96410.56
2023-03-15T05:47:06.343Z,96411.03
2023-03-15T05:49:32.634Z,96416.25
2023-03-15T05:51:58.957Z,96418.19
2023-03-15T05:54:25.250Z,96419.03
2023-03-15T05:56:51.551Z,96416.25
2023-03-15T05:59:17.867Z,96415.19
2023-03-15T06:01:44.164Z,96412.72
2023-03-15T06:04:10.503Z,96418.28
2023-03-15T06:06:36.851Z,96424.56
2023-03-15T06:09:03.144Z,96428.66
2023-03-15T06:11:29.436Z,96424.34
2023-03-15T06:13:55.735Z,96424.59
2023-03-15T06:16:22.037Z,96428.03
2023-03-15T06:18:48.384Z,96430.91
2023-03-15T06:21:14.703Z,96433.66
2023-03-15T06:23:40.995Z,96434.34
2023-03-15T06:26:07.295Z,96441.25
2023-03-15T06:28:33.617Z,96440.19
2023-03-15T06:31:00.003Z,96442.97
2023-03-15T06:33:26.310Z,96443.66
2023-03-15T06:35:52.675Z,96449.41
2023-03-15T06:38:19.008Z,96453.91
2023-03-15T06:40:45.303Z,96449.03
2023-03-15T06:43:11.620Z,96454.59
2023-03-15T06:45:37.902Z,96455.03
2023-03-15T06:48:04.196Z,96455.84
2023-03-15T06:50:44.149Z,96459.31
2023-03-15T06:53:12.598Z,96465.25
2023-03-15T06:55:38.945Z,96470.75
2023-03-15T06:58:05.311Z,96473.84
2023-03-15T07:00:31.753Z,96475.03
2023-03-15T07:02:58.244Z,96472.00
2023-03-15T07:05:24.553Z,96473.22
2023-03-15T07:07:50.857Z,96488.88
2023-03-15T07:10:17.178Z,96488.88
2023-03-15T07:12:43.454Z,96492.91
2023-03-15T07:15:09.740Z,96493.66
2023-03-15T07:17:36.075Z,96494.50
2023-03-15T07:20:02.374Z,96507.91
2023-03-15T07:22:28.661Z,96498.06
2023-03-15T07:24:54.991Z,96501.63
2023-03-15T07:27:21.291Z,96500.03
2023-03-15T07:29:47.608Z,96494.97
2023-03-15T07:32:13.966Z,96503.25
2023-03-15T07:34:40.271Z,96512.31
2023-03-15T07:37:06.567Z,96509.19
2023-03-15T07:39:32.909Z,96507.19
2023-03-15T07:41:59.216Z,96508.78
2023-03-15T07:44:25.505Z,96516.69
2023-03-15T07:46:51.876Z,96513.94
2023-03-15T07:49:18.225Z,96514.31
2023-03-15T07:51:44.512Z,96506.34
2023-03-15T07:54:10.846Z,96518.50
2023-03-15T07:56:37.149Z,96511.44
2023-03-15T07:59:03.452Z,96520.56
2023-03-15T08:01:29.756Z,96510.50
2023-03-15T08:03:56.048Z,96513.81
2023-03-15T08:06:22.340Z,96521.84
2023-03-15T08:08:48.662Z,96517.56
2023-03-15T08:11:14.970Z,96517.53
2023-03-15T08:13:41.260Z,96524.69
2023-03-15T08:16:07.665Z,96513.25
2023-03-15T08:18:34.019Z,96514.59
2023-03-15T08:21:00.322Z,96525.16
2023-03-15T08:23:26.640Z,96532.13
2023-03-15T08:25:52.939Z,96521.16
2023-03-15T08:28:19.312Z,96512.88
2023-03-15T08:30:45.647Z,96518.47
2023-03-15T08:33:11.941Z,96519.91
2023-03-15T08:35:38.255Z,96518.47
2023-03-15T08:38:04.598Z,96525.19
2023-03-15T08:40:30.895Z,96523.88
2023-03-15T08:42:57.183Z,96530.59
2023-03-15T08:45:23.531Z,96530.59
2023-03-15T08:47:49.828Z,96529.03
2023-03-15T08:50:16.111Z,96539.22
2023-03-15T08:52:42.428Z,96531.63
2023-03-15T08:55:08.729Z,96528.19
2023-03-15T08:57:35.030Z,96534.53
2023-03-15T09:00:01.423Z,96535.03
2023-03-15T09:02:27.740Z,96525.69
2023-03-15T09:04:54.036Z,96538.16
2023-03-15T09:07:20.377Z,96531.03
2023-03-15T09:09:46.662Z,96537.75
2023-03-15T09:12:12.957Z,96546.91
2023-03-15T09:14:39.277Z,96541.75
2023-03-15T09:17:05.676Z,96540.34
2023-03-15T09:19:32.026Z,96549.69
2023-03-15T09:22:10.747Z,96548.16
2023-03-15T09:24:44.661Z,96557.03
2023-03-15T09:27:10.992Z,96544.16
2023-03-15T09:29:37.276Z,96549.53
2023-03-15T09:32:03.578Z,96549.13
2023-03-15T09:34:33.263Z,96539.78
2023-03-15T09:37:06.109Z,96541.22
2023-03-15T09:39:32.487Z,96545.72
2023-03-15T09:41:58.776Z,96540.72
2023-03-15T09:44:25.066Z,96547.06
2023-03-15T09:46:51.520Z,96541.72
2023-03-15T09:49:17.906Z,96531.44
2023-03-15T09:51:44.199Z,96532.72
2023-03-15T09:54:10.522Z,96541.47
2023-03-15T09:56:36.822Z,96542.13
2023-03-15T09:59:03.120Z,96542.72
2023-03-15T10:01:29.561Z,96552.31
2023-03-15T10:03:55.932Z,96555.72
2023-03-15T10:06:22.393Z,96554.13
2023-03-15T10:08:48.825Z,96553.72
2023-03-15T10:11:15.114Z,96551.06
2023-03-15T10:13:41.394Z,96544.78
2023-03-15T10:16:07.717Z,96542.41
2023-03-15T10:18:34.044Z,96547.97
2023-03-15T10:21:00.339Z,96548.38
2023-03-15T10:23:26.649Z,96539.94
2023-03-15T10:25:52.947Z,96540.56
2023-03-15T10:28:19.356Z,96536.13
2023-03-15T10:30:45.682Z,96535.59
2023-03-15T10:33:11.972Z,96544.25
2023-03-15T10:35:38.311Z,96539.56
2023-03-15T10:38:04.619Z,96539.91
2023-03-15T10:40:30.901Z,96537.28
2023-03-15T10:42:57.201Z,96535.84
2023-03-15T10:45:23.507Z,96534.75
2023-03-15T10:47:59.611Z,96529.50
2023-03-15T10:50:26.482Z,96532.34
2023-03-15T10:52:52.777Z,96529.03
2023-03-15T10:55:19.077Z,96526.03
2023-03-15T10:57:45.446Z,96530.41
2023-03-15T11:00:11.773Z,96525.53
2023-03-15T11:02:38.090Z,96523.75
2023-03-15T11:05:04.429Z,96519.56
2023-03-15T11:07:30.732Z,96520.72
2023-03-15T11:09:57.033Z,96517.78
2023-03-15T11:12:23.338Z,96516.78
2023-03-15T11:14:49.627Z,96504.66
2023-03-15T11:17:15.922Z,96505.56
2023-03-15T11:19:42.275Z,96498.00
2023-03-15T11:22:08.576Z,96507.19
2023-03-15T11:24:34.929Z,96502.28
2023-03-15T11:27:01.256Z,96503.56
2023-03-15T11:29:27.549Z,96492.97
2023-03-15T11:31:53.900Z,96498.00
2023-03-15T11:34:20.251Z,96505.78
2023-03-15T11:36:49.085Z,96496.28
2023-03-15T11:39:19.419Z,96497.06
2023-03-15T11:41:45.759Z,96495.41
2023-03-15T11:44:12.046Z,96492.72
2023-03-15T11:46:38.381Z,96489.84
2023-03-15T11:49:04.689Z,96492.38
2023-03-15T11:51:30.992Z,96488.34
2023-03-15T11:53:57.356Z,96489.41
2023-03-15T11:56:23.651Z,96495.00
2023-03-15T11:58:49.961Z,96491.59
2023-03-15T12:01:16.277Z,96492.13
2023-03-15T12:03:42.607Z,96487.59
2023-03-15T12:06:08.940Z,96486.25
2023-03-15T12:08:35.261Z,96485.28
2023-03-15T12:11:01.558Z,96481.47
2023-03-15T12:13:27.889Z,96485.00
2023-03-15T12:15:54.224Z,96479.25
2023-03-15T12:18:20.556Z,96479.31
2023-03-15T12:20:46.857Z,96476.53
2023-03-15T12:23:13.205Z,96463.72
2023-03-15T12:25:52.609Z,96463.34
2023-03-15T12:28:21.049Z,96461.63
2023-03-15T12:30:47.357Z,96464.53
2023-03-15T12:33:13.687Z,96459.19
2023-03-15T12:35:40.050Z,96458.44
2023-03-15T12:38:06.410Z,96454.56
2023-03-15T12:40:32.708Z,96451.84
2023-03-15T12:42:59.032Z,96451.75
2023-03-15T12:45:25.332Z,96453.44
2023-03-15T12:47:51.672Z,96450.53
2023-03-15T12:50:18.000Z,96446.91
2023-03-15T12:52:44.304Z,96445.69
2023-03-15T12:55:10.603Z,96449.81
2023-03-15T12:57:36.969Z,96439.22
2023-03-15T13:00:03.289Z,96438.28
2023-03-15T13:02:41.789Z,96430.66
2023-03-15T13:05:09.404Z,96428.31
2023-03-15T13:07:50.194Z,96437.25
2023-03-15T13:10:17.189Z,96427.91
2023-03-15T13:12:43.507Z,96436.19
2023-03-15T13:15:09.833Z,96433.38
2023-03-15T13:17:36.379Z,96427.09
2023-03-15T13:20:02.717Z,96430.28
2023-03-15T13:22:29.029Z,96425.91
2023-03-15T13:24:55.369Z,96436.38
2023-03-15T13:27:21.676Z,96431.59
2023-03-15T13:29:47.975Z,96423.22
2023-03-15T13:32:15.411Z,96420.84
2023-03-15T13:34:41.724Z,96421.19
2023-03-15T13:37:08.023Z,96418.13
2023-03-15T13:39:34.365Z,96426.19
2023-03-15T13:42:00.652Z,96422.47
2023-03-15T13:44:26.976Z,96426.44
2023-03-15T13:46:53.372Z,96425.78
2023-03-15T13:49:19.708Z,96430.78
2023-03-15T13:51:46.000Z,96429.34
2023-03-15T13:54:12.317Z,96420.41
2023-03-15T13:56:49.400Z,96428.91
2023-03-15T13:59:16.234Z,96430.88
2023-03-15T14:01:42.645Z,96422.59
2023-03-15T14:04:09.068Z,96417.31
2023-03-15T14:06:35.389Z,96422.31
2023-03-15T14:09:01.698Z,96418.91
2023-03-15T14:11:28.012Z,96412.13
2023-03-15T14:13:54.317Z,96420.06
2023-03-15T14:16:20.678Z,96426.13
2023-03-15T14:18:46.998Z,96425.31
2023-03-15T14:21:13.325Z,96433.47
2023-03-15T14:23:39.776Z,96431.75
2023-03-15T14:26:06.074Z,96435.13
2023-03-15T14:28:32.459Z,96432.97
2023-03-15T14:30:58.755Z,96431.38
2023-03-15T14:33:25.048Z,96430.16
2023-03-15T14:35:51.356Z,96426.78
2023-03-15T14:38:17.666Z,96425.31
2023-03-15T14:40:43.968Z,96430.47
2023-03-15T14:43:10.302Z,96425.63
2023-03-15T14:45:36.626Z,96424.03
2023-03-15T14:48:02.942Z,96424.84
2023-03-15T14:50:29.308Z,96434.34
2023-03-15T14:52:55.629Z,96428.72
2023-03-15T14:55:21.988Z,96428.59
2023-03-15T14:57:48.302Z,96425.72
2023-03-15T15:00:14.615Z,96423.09
2023-03-15T15:02:40.957Z,96423.97
2023-03-15T15:05:07.351Z,96429.97
2023-03-15T15:07:33.678Z,96430.63
2023-03-15T15:09:59.991Z,96429.78
2023-03-15T15:12:26.305Z,96434.41
2023-03-15T15:14:52.615Z,96443.34
2023-03-15T15:17:19.204Z,96440.22
2023-03-15T15:19:47.040Z,96451.81
2023-03-15T15:22:13.449Z,96463.66
2023-03-15T15:24:39.738Z,96459.22
2023-03-15T15:27:06.039Z,96469.34
2023-03-15T15:29:32.336Z,96457.22
2023-03-15T15:31:58.698Z,96448.19
2023-03-15T15:34:25.021Z,96456.88
2023-03-15T15:36:51.296Z,96463.25
2023-03-15T15:39:17.584Z,96446.97
2023-03-15T15:41:43.920Z,96443.56
2023-03-15T15:44:10.216Z,96442.59
2023-03-15T15:46:36.504Z,96440.63
2023-03-15T15:49:02.830Z,96456.94
2023-03-15T15:51:29.135Z,96446.59
2023-03-15T15:53:55.428Z,96437.16
2023-03-15T15:56:21.750Z,96440.78
2023-03-15T15:58:48.061Z,96426.94
2023-03-15T16:01:14.427Z,96434.63
2023-03-15T16:03:40.781Z,96445.25
2023-03-15T16:06:07.075Z,96440.16
2023-03-15T16:08:33.363Z,96432.06
2023-03-15T16:10:59.706Z,96432.25
2023-03-15T16:13:25.985Z,96441.44
2023-03-15T16:15:52.274Z,96443.09
2023-03-15T16:18:18.591Z,96438.50
2023-03-15T16:20:44.884Z,96445.84
2023-03-15T16:23:11.177Z,96446.06
2023-03-15T16:25:37.493Z,96449.81
2023-03-15T16:28:03.797Z,96451.66
2023-03-15T16:30:30.106Z,96453.59
2023-03-15T16:32:56.441Z,96471.91
2023-03-15T16:35:22.751Z,96459.69
2023-03-15T16:37:49.042Z,96460.03
2023-03-15T16:40:15.340Z,96461.88
2023-03-15T16:42:41.643Z,96472.44
2023-03-15T16:45:07.930Z,96467.00
2023-03-15T16:47:34.238Z,96467.91
2023-03-15T16:50:00.639Z,96471.91
2023-03-15T16:52:27.032Z,96469.00
2023-03-15T16:54:53.405Z,96478.50
2023-03-15T16:57:19.707Z,96467.69
2023-03-15T16:59:46.011Z,96474.16
2023-03-15T17:02:13.085Z,96480.81
2023-03-15T17:04:39.678Z,96476.06
2023-03-15T17:07:05.992Z,96491.41
2023-03-15T17:09:32.311Z,96488.81
2023-03-15T17:11:58.604Z,96489.47
2023-03-15T17:14:24.900Z,96492.38
2023-03-15T17:16:51.274Z,96487.63
2023-03-15T17:19:17.605Z,96492.94
2023-03-15T17:21:43.916Z,96494.84
2023-03-15T17:24:10.230Z,96493.44
2023-03-15T17:26:36.518Z,96495.97
2023-03-15T17:29:02.807Z,96492.28
2023-03-15T17:31:29.196Z,96498.16
2023-03-15T17:33:55.535Z,96489.38
2023-03-15T17:36:21.810Z,96497.63
2023-03-15T17:38:48.144Z,96494.22
2023-03-15T17:41:14.499Z,96490.84
2023-03-15T17:43:40.839Z,96492.97
2023-03-15T17:46:07.153Z,96496.22
2023-03-15T17:48:33.500Z,96505.22
2023-03-15T17:50:59.787Z,96507.34
2023-03-15T17:53:26.103Z,96508.41
2023-03-15T17:55:52.398Z,96501.06
2023-03-15T17:58:18.708Z,96508.69
2023-03-15T18:00:45.034Z,96498.06
2023-03-15T18:03:11.365Z,96494.91
2023-03-15T18:05:37.656Z,96492.44
2023-03-15T18:08:03.967Z,96492.09
2023-03-15T18:10:30.264Z,96494.06
2023-03-15T18:12:56.553Z,96487.19
2023-03-15T18:15:22.884Z,96489.53
2023-03-15T18:17:49.190Z,96496.53
2023-03-15T18:20:15.549Z,96496.50
2023-03-15T18:22:41.914Z,96496.78
2023-03-15T18:25:08.207Z,96494.63
2023-03-15T18:27:34.502Z,96491.94
2023-03-15T18:30:00.832Z,96499.03
2023-03-15T18:32:27.159Z,96503.16
2023-03-15T18:34:53.460Z,96490.19
2023-03-15T18:37:19.773Z,96494.38
2023-03-15T18:39:46.111Z,96495.53
2023-03-15T18:42:12.398Z,96485.22
2023-03-15T18:44:38.708Z,96501.28
2023-03-15T18:47:07.324Z,96488.78
2023-03-15T18:49:34.662Z,96494.13
2023-03-15T18:52:00.976Z,96497.72
2023-03-15T18:54:27.264Z,96503.63
2023-03-15T18:56:53.555Z,96500.78
2023-03-15T18:59:19.873Z,96504.50
2023-03-15T19:01:46.342Z,96506.19
2023-03-15T19:04:12.696Z,96507.47
2023-03-15T19:06:39.012Z,96506.81
2023-03-15T19:09:05.310Z,96501.06
2023-03-15T19:11:31.634Z,96508.25
2023-03-15T19:13:57.960Z,96505.13
2023-03-15T19:16:24.280Z,96510.38
2023-03-15T19:18:50.647Z,96509.81
2023-03-15T19:21:16.958Z,96517.13
2023-03-15T19:23:43.255Z,96520.38
2023-03-15T19:26:09.554Z,96521.91
2023-03-15T19:28:35.906Z,96516.28
2023-03-15T19:31:02.263Z,96518.22
2023-03-15T19:33:28.597Z,96519.47
2023-03-15T19:35:54.986Z,96520.63
2023-03-15T19:38:21.336Z,96524.50
2023-03-15T19:40:47.628Z,96517.91
2023-03-15T19:43:13.930Z,96513.06
2023-03-15T19:45:40.226Z,96519.59
2023-03-15T19:48:06.516Z,96516.75
2023-03-15T19:50:32.824Z,96516.06
2023-03-15T19:52:59.130Z,96509.28
2023-03-15T19:55:25.423Z,96513.84
2023-03-15T19:57:51.728Z,96525.84
2023-03-15T20:00:18.094Z,96518.00
2023-03-15T20:02:44.458Z,96519.34
2023-03-15T20:05:10.761Z,96522.66
2023-03-15T20:07:37.085Z,96530.38
2023-03-15T20:10:03.369Z,96523.84
2023-03-15T20:12:29.680Z,96530.66
2023-03-15T20:14:55.980Z,96527.84
2023-03-15T20:17:22.278Z,96524.13
2023-03-15T20:19:48.599Z,96522.25
2023-03-15T20:22:14.883Z,96522.63
2023-03-15T20:24:41.157Z,96531.31
2023-03-15T20:27:07.468Z,96530.16
2023-03-15T20:29:33.749Z,96536.97
2023-03-15T20:32:00.045Z,96534.25
2023-03-15T20:34:26.414Z,96532.31
2023-03-15T20:36:52.727Z,96537.84
2023-03-15T20:39:19.018Z,96535.44
2023-03-15T20:41:45.328Z,96528.75
2023-03-15T20:44:11.636Z,96526.69
2023-03-15T20:46:38.093Z,96529.84
2023-03-15T20:49:04.489Z,96530.66
2023-03-15T20:51:30.788Z,96529.84
2023-03-15T20:53:57.098Z,96526.81
2023-03-15T20:56:23.416Z,96521.69
2023-03-15T20:58:49.714Z,96518.09
2023-03-15T21:01:16.098Z,96515.72
2023-03-15T21:03:42.489Z,96518.56
2023-03-15T21:06:08.798Z,96521.72
2023-03-15T21:08:35.092Z,96524.56
2023-03-15T21:11:01.395Z,96519.38
2023-03-15T21:13:27.737Z,96526.47
2023-03-15T21:15:54.031Z,96530.09
2023-03-15T21:18:20.345Z,96530.91
2023-03-15T21:20:46.648Z,96536.03
2023-03-15T21:23:13.010Z,96542.34
2023-03-15T21:25:39.316Z,96537.19
2023-03-15T21:28:05.678Z,96539.19
2023-03-15T21:30:31.978Z,96530.09
2023-03-15T21:32:58.353Z,96536.00
2023-03-15T21:35:24.686Z,96532.09
2023-03-15T21:37:51.005Z,96531.66
2023-03-15T21:40:17.426Z,96532.09
2023-03-15T21:42:43.723Z,96535.25
2023-03-15T21:45:10.066Z,96528.09
2023-03-15T21:47:36.424Z,96530.91
2023-03-15T21:50:02.712Z,96530.50
2023-03-15T21:52:28.994Z,96528.91
2023-03-15T21:54:55.308Z,96538.00
2023-03-15T21:57:21.747Z,96528.16
2023-03-15T21:59:48.047Z,96525.31
2023-03-15T22:02:14.408Z,96522.19
2023-03-15T22:04:40.744Z,96528.88
2023-03-15T22:07:07.039Z,96529.31
2023-03-15T22:09:33.350Z,96521.03
2023-03-15T22:11:59.644Z,96513.94
2023-03-15T22:14:25.957Z,96513.91
2023-03-15T22:16:52.293Z,96518.25
2023-03-15T22:19:18.615Z,96509.97
2023-03-15T22:21:44.907Z,96504.03
2023-03-15T22:24:11.215Z,96506.44
2023-03-15T22:26:37.503Z,96513.13
2023-03-15T22:29:03.808Z,96505.63
2023-03-15T22:31:30.140Z,96500.91
2023-03-15T22:33:56.435Z,96502.47
2023-03-15T22:36:22.729Z,96509.97
2023-03-15T22:38:49.037Z,96506.44
2023-03-15T22:41:15.330Z,96511.94
2023-03-15T22:43:41.618Z,96514.31
2023-03-15T22:46:08.042Z,96511.94
2023-03-15T22:48:34.434Z,96514.72
2023-03-15T22:51:00.740Z,96518.28
2023-03-15T22:53:27.048Z,96529.34
2023-03-15T22:55:53.337Z,96521.44
2023-03-15T22:58:19.628Z,96530.88
2023-03-15T23:00:45.938Z,96525.41
2023-03-15T23:03:12.231Z,96525.00
2023-03-15T23:05:38.521Z,96535.63
2023-03-15T23:08:04.839Z,96532.84
2023-03-15T23:10:31.139Z,96535.59
2023-03-15T23:12:57.437Z,96537.22
2023-03-15T23:15:23.748Z,96543.47
2023-03-15T23:17:50.059Z,96538.31
2023-03-15T23:20:16.369Z,96531.28
2023-03-15T23:22:42.686Z,96534.03
2023-03-15T23:25:08.970Z,96543.09
2023-03-15T23:27:35.254Z,96536.38
2023-03-15T23:30:01.565Z,96538.75
2023-03-15T23:32:27.909Z,96540.31
2023-03-15T23:34:54.221Z,96540.69
2023-03-15T23:37:20.523Z,96537.56
2023-03-15T23:39:46.820Z,96534.81
2023-03-15T23:42:13.100Z,96532.41
2023-03-15T23:44:39.411Z,96530.81
2023-03-15T23:47:05.725Z,96529.66
2023-03-15T23:49:32.031Z,96534.00
2023-03-15T23:51:58.393Z,96529.66
2023-03-15T23:54:24.675Z,96526.91
2023-03-15T23:56:50.958Z,96529.63
2023-03-15T23:59:17.261Z,96530.00
